Time;durP1;ratioP1;P1;durP2;ratioP2;P2;SDS_P1;SDS_P2;PMS_P1;PMS_P2;Temp;Humidity;BMP_temperature;BMP_pressure;BME280_temperature;BME280_humidity;BME280_pressure;Samples;Min_cycle;Max_cycle;Signal;HPM_P1;HPM_P2
2021/01/19 00:01:14;;;;;;;1.57;1.20;;;3.00;98.00;;;;;;5071518;28;20464;-64
2021/01/19 00:03:40;;;;;;;1.83;1.20;;;3.00;98.00;;;;;;5073537;28;20495;-64
2021/01/19 00:06:07;;;;;;;1.20;1.00;;;3.00;98.00;;;;;;5071394;28;20464;-64
2021/01/19 00:08:35;;;;;;;1.20;1.17;;;2.90;98.00;;;;;;5073283;28;20949;-64
2021/01/19 00:11:02;;;;;;;1.30;1.23;;;3.00;98.00;;;;;;5071629;28;20487;-64
2021/01/19 00:13:29;;;;;;;1.20;1.07;;;3.00;98.00;;;;;;5073381;28;20494;-66
2021/01/19 00:15:55;;;;;;;1.30;1.20;;;3.00;98.00;;;;;;5071317;28;20464;-63
2021/01/19 00:18:24;;;;;;;1.10;0.90;;;3.00;98.00;;;;;;5073115;28;20487;-64
2021/01/19 00:20:51;;;;;;;1.20;0.93;;;3.10;98.00;;;;;;5071143;28;20475;-65
2021/01/19 00:23:18;;;;;;;1.13;0.90;;;3.10;98.00;;;;;;5073078;28;20478;-66
2021/01/19 00:25:44;;;;;;;1.20;1.00;;;3.10;98.00;;;;;;5071158;28;20463;-65
2021/01/19 00:28:11;;;;;;;1.20;0.90;;;3.10;98.00;;;;;;5073052;28;20464;-65
2021/01/19 00:30:39;;;;;;;1.20;1.10;;;3.10;98.00;;;;;;5071289;28;20464;-64
2021/01/19 00:33:06;;;;;;;1.30;1.10;;;3.00;98.00;;;;;;5073125;28;20474;-66
2021/01/19 00:35:33;;;;;;;1.13;0.90;;;3.00;98.00;;;;;;5071305;28;20492;-64
2021/01/19 00:38:00;;;;;;;2.37;1.27;;;3.00;98.00;;;;;;5073058;28;20484;-65
2021/01/19 00:40:27;;;;;;;1.10;0.93;;;2.90;98.00;;;;;;5071292;28;21019;-67
2021/01/19 00:42:56;;;;;;;1.10;0.90;;;2.90;98.00;;;;;;5073166;28;20987;-64
2021/01/19 00:45:23;;;;;;;1.20;1.07;;;2.90;98.00;;;;;;5071359;28;20467;-65
2021/01/19 00:47:49;;;;;;;1.20;1.00;;;3.00;98.00;;;;;;5072824;28;20884;-65
2021/01/19 00:50:16;;;;;;;1.37;1.33;;;3.00;98.00;;;;;;5072802;28;20937;-64
2021/01/19 00:52:45;;;;;;;1.83;1.50;;;3.00;98.00;;;;;;5071290;28;20831;-64
2021/01/19 00:55:12;;;;;;;1.13;1.00;;;3.00;98.00;;;;;;5072607;28;20835;-64
2021/01/19 00:57:40;;;;;;;1.20;1.00;;;3.00;98.00;;;;;;5070493;28;20493;-65
2021/01/19 01:00:08;;;;;;;1.10;0.90;;;3.00;98.00;;;;;;5072253;28;20530;-64
2021/01/19 01:02:35;;;;;;;1.10;0.90;;;3.00;98.00;;;;;;5069215;28;20503;-64
2021/01/19 01:05:01;;;;;;;1.10;1.00;;;2.90;98.00;;;;;;5071054;28;20456;-65
2021/01/19 01:07:33;;;;;;;1.10;0.90;;;2.90;98.00;;;;;;5070408;28;20460;-65
2021/01/19 01:10:01;;;;;;;1.10;0.90;;;2.90;98.00;;;;;;5072242;28;20485;-65
2021/01/19 01:12:27;;;;;;;1.10;0.90;;;2.90;98.00;;;;;;5070152;28;20460;-64
2021/01/19 01:14:54;;;;;;;1.20;1.10;;;2.90;98.00;;;;;;5072203;28;20556;-64
2021/01/19 01:17:20;;;;;;;1.10;0.90;;;2.90;98.00;;;;;;5070020;28;20491;-66
2021/01/19 01:19:47;;;;;;;1.10;1.00;;;2.90;98.00;;;;;;5071957;28;20468;-64
2021/01/19 01:22:14;;;;;;;1.10;0.90;;;3.00;98.00;;;;;;5070115;28;20521;-65
2021/01/19 01:24:40;;;;;;;1.13;1.00;;;2.90;98.00;;;;;;5071893;28;20459;-64
2021/01/19 01:27:08;;;;;;;1.10;1.00;;;2.90;98.00;;;;;;5068761;28;20459;-64
2021/01/19 01:29:34;;;;;;;1.20;0.90;;;2.90;98.00;;;;;;5070417;28;20541;-64
2021/01/19 01:32:01;;;;;;;1.10;0.90;;;2.90;98.00;;;;;;5069979;28;20472;-64
2021/01/19 01:34:27;;;;;;;1.17;0.90;;;2.90;98.00;;;;;;5070506;28;20970;-66
2021/01/19 01:36:54;;;;;;;1.20;1.00;;;2.90;98.00;;;;;;5069991;28;20463;-64
2021/01/19 01:39:20;;;;;;;1.10;0.90;;;2.90;98.00;;;;;;5071685;28;20804;-65
2021/01/19 01:41:47;;;;;;;1.10;0.90;;;2.90;98.00;;;;;;5069826;28;20503;-66
2021/01/19 01:44:15;;;;;;;1.20;1.00;;;3.00;98.00;;;;;;5070291;28;20468;-65
2021/01/19 01:46:42;;;;;;;1.10;0.90;;;2.90;98.00;;;;;;5069795;28;20454;-64
2021/01/19 01:49:09;;;;;;;1.40;1.03;;;2.90;98.00;;;;;;5071305;28;20617;-64
2021/01/19 01:51:35;;;;;;;1.17;0.90;;;2.90;98.00;;;;;;5069683;28;20876;-65
2021/01/19 01:54:02;;;;;;;1.10;0.90;;;2.90;98.00;;;;;;5071479;28;20461;-64
2021/01/19 01:56:29;;;;;;;1.10;0.90;;;2.80;98.00;;;;;;5069461;28;20451;-66
2021/01/19 01:58:56;;;;;;;1.20;1.00;;;2.80;98.00;;;;;;5071090;28;21020;-64
2021/01/19 02:01:25;;;;;;;3.87;1.60;;;2.80;98.00;;;;;;5069625;28;20459;-65
2021/01/19 02:03:53;;;;;;;1.20;1.00;;;2.70;98.00;;;;;;5070110;28;20455;-64
2021/01/19 02:06:20;;;;;;;1.20;1.00;;;2.70;98.00;;;;;;5069725;28;20456;-66
2021/01/19 02:08:58;;;;;;;1.10;0.90;;;2.70;98.00;;;;;;5071107;28;20460;-65
2021/01/19 02:11:36;;;;;;;1.20;1.00;;;2.70;98.00;;;;;;5069506;28;20463;-64
2021/01/19 02:14:11;;;;;;;2.40;1.07;;;2.70;98.00;;;;;;5070754;28;20521;-64
2021/01/19 02:16:52;;;;;;;1.10;0.90;;;2.80;98.00;;;;;;5069294;28;20459;-64
2021/01/19 02:19:53;;;;;;;1.10;0.90;;;2.80;98.00;;;;;;5071275;28;20459;-64
2021/01/19 02:22:31;;;;;;;1.20;1.00;;;2.70;98.00;;;;;;5069505;28;20467;-64
2021/01/19 02:25:11;;;;;;;1.20;1.00;;;2.70;98.00;;;;;;5071084;28;20460;-64
2021/01/19 02:28:08;;;;;;;1.20;1.00;;;2.60;98.00;;;;;;5069285;28;20979;-64
2021/01/19 02:30:42;;;;;;;1.13;0.90;;;2.60;98.00;;;;;;5069755;28;20479;-64
2021/01/19 02:33:18;;;;;;;1.10;0.90;;;2.60;98.00;;;;;;5071816;28;20483;-64
2021/01/19 02:35:53;;;;;;;1.10;0.90;;;2.60;98.00;;;;;;5069439;28;20456;-64
2021/01/19 02:38:27;;;;;;;1.20;1.00;;;2.60;98.00;;;;;;5069563;28;20494;-64
2021/01/19 02:40:58;;;;;;;1.20;1.00;;;2.60;98.00;;;;;;5068922;28;20461;-63
2021/01/19 02:43:26;;;;;;;1.17;1.00;;;2.60;98.00;;;;;;5069687;28;20456;-63
2021/01/19 02:46:00;;;;;;;1.20;1.00;;;2.50;98.00;;;;;;5068748;28;20459;-65
2021/01/19 02:48:30;;;;;;;1.20;1.10;;;2.60;98.00;;;;;;5053699;28;20810;-64
2021/01/19 02:50:57;;;;;;;1.10;0.90;;;2.60;98.00;;;;;;5069024;28;20456;-65
2021/01/19 02:53:24;;;;;;;1.20;1.00;;;2.50;98.00;;;;;;5070745;28;20494;-65
2021/01/19 02:55:53;;;;;;;1.20;1.00;;;2.60;98.00;;;;;;5068596;28;20464;-64
2021/01/19 02:58:42;;;;;;;1.10;0.90;;;2.60;98.00;;;;;;5070663;28;20495;-63
2021/01/19 03:01:16;;;;;;;1.10;0.90;;;2.60;98.00;;;;;;5068397;28;20451;-64
2021/01/19 03:03:45;;;;;;;1.20;1.03;;;2.50;98.00;;;;;;5070536;28;20471;-65
2021/01/19 03:06:15;;;;;;;1.30;1.20;;;2.60;98.00;;;;;;5068580;28;20520;-65
2021/01/19 03:08:43;;;;;;;1.40;1.20;;;2.60;98.00;;;;;;5070413;28;20448;-65
2021/01/19 03:11:14;;;;;;;1.20;1.10;;;2.70;98.00;;;;;;5068446;28;20487;-66
2021/01/19 03:13:43;;;;;;;1.10;1.00;;;2.70;98.00;;;;;;5070454;28;20954;-64
2021/01/19 03:16:12;;;;;;;1.10;0.90;;;2.70;98.00;;;;;;5068667;28;20926;-65
2021/01/19 03:18:41;;;;;;;1.10;1.00;;;2.70;98.00;;;;;;5070362;28;20922;-64
2021/01/19 03:21:09;;;;;;;1.17;1.00;;;2.60;98.00;;;;;;5068623;28;20463;-66
2021/01/19 03:23:37;;;;;;;1.13;0.90;;;2.50;98.00;;;;;;5070525;28;20463;-64
2021/01/19 03:26:05;;;;;;;1.20;0.90;;;2.50;98.00;;;;;;5069234;28;20458;-66
2021/01/19 03:28:32;;;;;;;1.10;1.00;;;2.40;98.00;;;;;;5074261;28;20984;-66
2021/01/19 03:30:58;;;;;;;1.10;0.90;;;2.40;98.00;;;;;;5072525;28;20578;-64
2021/01/19 03:33:26;;;;;;;1.20;0.90;;;2.50;98.00;;;;;;5074201;28;20463;-64
2021/01/19 03:35:52;;;;;;;1.10;0.90;;;2.60;98.00;;;;;;5072404;28;20938;-64
2021/01/19 03:38:20;;;;;;;1.10;0.90;;;2.50;98.00;;;;;;5074132;28;20487;-65
2021/01/19 03:40:47;;;;;;;1.10;0.90;;;2.60;98.00;;;;;;5072221;28;20460;-65
2021/01/19 03:43:13;;;;;;;1.10;1.00;;;2.50;98.00;;;;;;5074098;28;20455;-65
2021/01/19 03:45:40;;;;;;;1.77;1.33;;;2.50;98.00;;;;;;5071339;28;20468;-64
2021/01/19 03:48:07;;;;;;;1.20;1.00;;;2.60;98.00;;;;;;5074185;28;20523;-64
2021/01/19 03:50:35;;;;;;;1.10;0.90;;;2.60;98.00;;;;;;5074009;28;20452;-64
2021/01/19 03:53:01;;;;;;;1.10;0.90;;;2.60;98.00;;;;;;5070970;28;20463;-65
2021/01/19 03:55:30;;;;;;;1.10;0.90;;;2.50;98.00;;;;;;5073888;28;20462;-64
2021/01/19 03:57:57;;;;;;;1.10;0.90;;;2.30;98.00;;;;;;5053916;28;20569;-65
2021/01/19 04:00:24;;;;;;;1.63;1.20;;;2.20;98.00;;;;;;5073996;28;20495;-65
2021/01/19 04:02:50;;;;;;;1.20;1.00;;;2.10;98.00;;;;;;5071969;28;20551;-64
2021/01/19 04:05:17;;;;;;;1.20;1.00;;;2.00;98.00;;;;;;5072474;28;20954;-64
2021/01/19 04:07:45;;;;;;;1.10;0.90;;;2.10;98.00;;;;;;5071612;28;20459;-66
2021/01/19 04:10:13;;;;;;;1.10;0.90;;;2.20;98.00;;;;;;5073401;28;20471;-65
2021/01/19 04:12:41;;;;;;;1.17;1.00;;;2.20;98.00;;;;;;5071056;28;20607;-64
2021/01/19 04:15:10;;;;;;;1.10;0.90;;;2.20;98.00;;;;;;5073285;28;20467;-65
2021/01/19 04:17:37;;;;;;;1.10;0.90;;;2.30;98.00;;;;;;5071329;28;20492;-66
2021/01/19 04:20:05;;;;;;;1.93;1.27;;;2.40;98.00;;;;;;5073378;28;20467;-64
2021/01/19 04:22:31;;;;;;;1.17;0.97;;;2.50;98.00;;;;;;5071324;28;20452;-65
2021/01/19 04:25:04;;;;;;;1.73;1.60;;;2.40;98.00;;;;;;5073122;28;20460;-65
2021/01/19 04:27:30;;;;;;;1.20;0.90;;;2.40;98.00;;;;;;5071527;28;20451;-65
2021/01/19 04:29:58;;;;;;;1.10;0.90;;;2.50;98.00;;;;;;5073156;28;20506;-64
2021/01/19 04:32:24;;;;;;;1.17;0.97;;;2.40;98.00;;;;;;5071029;28;20488;-65
2021/01/19 04:34:54;;;;;;;1.10;0.90;;;2.40;98.00;;;;;;5072924;28;20963;-64
2021/01/19 04:37:21;;;;;;;1.13;1.00;;;2.50;98.00;;;;;;5070760;28;20950;-65
2021/01/19 04:39:48;;;;;;;1.10;1.00;;;2.40;98.00;;;;;;5071704;28;20525;-64
2021/01/19 04:42:18;;;;;;;1.20;0.90;;;2.40;98.00;;;;;;5071172;28;20451;-64
2021/01/19 04:44:49;;;;;;;1.20;1.00;;;2.40;98.00;;;;;;5073046;28;20840;-64
2021/01/19 04:47:17;;;;;;;1.20;1.00;;;2.30;98.00;;;;;;5070871;28;20463;-64
2021/01/19 04:49:44;;;;;;;2.60;1.97;;;2.30;98.00;;;;;;5072595;28;20969;-64
2021/01/19 04:52:15;;;;;;;1.93;1.50;;;2.30;98.00;;;;;;5053041;28;20517;-65
2021/01/19 04:55:02;;;;;;;1.20;1.00;;;2.30;98.00;;;;;;5072642;28;20976;-64
2021/01/19 04:57:30;;;;;;;1.20;0.93;;;2.20;98.00;;;;;;5070790;28;20490;-64
2021/01/19 05:00:02;;;;;;;1.20;0.93;;;2.20;98.00;;;;;;5072323;28;20547;-64
2021/01/19 05:03:08;;;;;;;1.20;1.00;;;2.20;98.00;;;;;;5070592;28;20525;-65
2021/01/19 05:06:01;;;;;;;1.20;1.00;;;2.20;98.00;;;;;;5068784;28;20916;-64
2021/01/19 05:08:57;;;;;;;1.20;1.00;;;2.30;98.00;;;;;;5072487;28;20781;-64
2021/01/19 05:11:27;;;;;;;1.47;1.03;;;2.40;98.00;;;;;;5066453;28;20452;-64
2021/01/19 05:13:58;;;;;;;1.40;1.10;;;2.30;98.00;;;;;;5072632;28;20460;-65
2021/01/19 05:16:28;;;;;;;2.57;1.47;;;2.40;98.00;;;;;;5070635;28;20880;-65
2021/01/19 05:18:55;;;;;;;1.20;1.00;;;2.50;98.00;;;;;;5070990;28;20483;-64
2021/01/19 05:21:22;;;;;;;1.17;1.00;;;2.40;98.00;;;;;;5070224;28;20462;-65
2021/01/19 05:23:49;;;;;;;1.20;1.10;;;2.40;98.00;;;;;;5072269;28;20467;-64
2021/01/19 05:26:17;;;;;;;1.20;0.90;;;2.40;98.00;;;;;;5070479;28;20525;-64
2021/01/19 05:28:46;;;;;;;1.20;1.00;;;2.40;98.00;;;;;;5072338;28;20777;-64
2021/01/19 05:31:22;;;;;;;1.20;1.10;;;2.40;98.00;;;;;;5069969;28;20456;-66
2021/01/19 05:34:04;;;;;;;1.10;0.90;;;2.30;98.00;;;;;;5071944;28;20489;-64
2021/01/19 05:36:49;;;;;;;1.10;1.00;;;2.20;98.00;;;;;;5069936;28;20463;-64
2021/01/19 05:39:24;;;;;;;1.20;0.90;;;2.20;98.00;;;;;;5071784;28;21001;-65
2021/01/19 05:41:52;;;;;;;1.20;1.00;;;2.20;98.00;;;;;;5068518;28;20464;-64
2021/01/19 05:44:21;;;;;;;1.20;1.00;;;2.30;98.00;;;;;;5071730;28;20491;-64
2021/01/19 05:46:51;;;;;;;1.10;0.90;;;2.30;98.00;;;;;;5068533;28;20468;-64
2021/01/19 05:49:20;;;;;;;1.20;1.00;;;2.20;98.00;;;;;;5070878;28;20459;-64
2021/01/19 05:51:50;;;;;;;1.20;1.00;;;2.20;98.00;;;;;;5068220;28;20452;-66
2021/01/19 05:54:35;;;;;;;1.20;1.00;;;2.10;98.00;;;;;;5070316;28;21053;-64
2021/01/19 05:57:07;;;;;;;1.20;0.90;;;2.10;98.00;;;;;;5069777;28;20451;-64
2021/01/19 05:59:38;;;;;;;1.23;1.07;;;2.20;98.00;;;;;;5071060;28;20495;-63
2021/01/19 06:02:08;;;;;;;1.10;0.90;;;2.20;98.00;;;;;;5051785;28;20482;-64
2021/01/19 06:04:43;;;;;;;1.13;0.90;;;2.30;98.00;;;;;;5071336;28;20456;-64
2021/01/19 06:07:12;;;;;;;1.20;0.93;;;2.30;98.00;;;;;;5067904;28;20500;-65
2021/01/19 06:09:40;;;;;;;1.53;1.30;;;2.20;98.00;;;;;;5071201;28;20452;-63
2021/01/19 06:12:07;;;;;;;1.10;1.00;;;2.10;98.00;;;;;;5069435;28;20960;-64
2021/01/19 06:14:34;;;;;;;1.10;0.90;;;2.10;98.00;;;;;;5071105;28;20471;-64
2021/01/19 06:17:08;;;;;;;1.30;1.10;;;2.10;98.00;;;;;;5069263;28;20473;-65
2021/01/19 06:19:35;;;;;;;1.10;0.93;;;2.10;98.00;;;;;;5070965;28;20490;-65
2021/01/19 06:22:07;;;;;;;1.20;0.90;;;2.10;98.00;;;;;;5069049;28;20945;-66
2021/01/19 06:24:36;;;;;;;1.20;0.90;;;2.10;98.00;;;;;;5071094;28;20460;-66
2021/01/19 06:27:04;;;;;;;1.20;0.90;;;2.10;98.00;;;;;;5069006;28;20496;-66
2021/01/19 06:29:31;;;;;;;1.20;0.90;;;2.10;98.00;;;;;;5070846;28;20846;-65
2021/01/19 06:32:02;;;;;;;1.10;0.90;;;2.10;98.00;;;;;;5068035;28;20463;-66
2021/01/19 06:34:34;;;;;;;1.10;0.90;;;2.10;98.00;;;;;;5070758;28;20460;-67
2021/01/19 06:37:02;;;;;;;1.20;1.00;;;2.10;98.00;;;;;;5069204;28;20483;-66
2021/01/19 06:39:35;;;;;;;1.63;1.50;;;2.00;98.00;;;;;;5070662;28;20483;-67
2021/01/19 06:42:06;;;;;;;1.17;0.90;;;2.00;98.00;;;;;;5069243;28;20541;-66
2021/01/19 06:44:36;;;;;;;1.30;1.17;;;2.00;98.00;;;;;;5070836;28;20470;-65
2021/01/19 06:47:03;;;;;;;1.20;1.00;;;2.00;98.00;;;;;;5069150;28;20554;-65
2021/01/19 06:49:34;;;;;;;1.20;0.90;;;1.90;98.00;;;;;;5070940;28;20452;-65
2021/01/19 06:52:06;;;;;;;1.30;1.10;;;1.90;98.00;;;;;;5068022;28;20539;-65
2021/01/19 06:54:58;;;;;;;1.20;1.00;;;2.10;98.00;;;;;;5070877;28;20990;-64
2021/01/19 06:57:48;;;;;;;1.20;0.90;;;2.00;98.00;;;;;;5068782;28;20980;-66
2021/01/19 07:00:19;;;;;;;1.30;1.27;;;2.00;98.00;;;;;;5071656;28;20601;-68
2021/01/19 07:02:47;;;;;;;1.17;0.97;;;2.10;98.00;;;;;;5073413;28;20848;-67
2021/01/19 07:05:18;;;;;;;1.80;1.23;;;2.00;98.00;;;;;;5074704;28;20455;-68
2021/01/19 07:07:46;;;;;;;1.20;0.90;;;1.90;98.00;;;;;;5072908;28;20463;-67
2021/01/19 07:10:16;;;;;;;1.40;1.30;;;1.90;98.00;;;;;;5074517;28;21007;-68
2021/01/19 07:13:01;;;;;;;1.30;1.20;;;1.90;98.00;;;;;;5072980;28;20465;-66
2021/01/19 07:16:05;;;;;;;1.17;1.00;;;2.00;98.00;;;;;;5074592;28;20447;-67
2021/01/19 07:18:45;;;;;;;1.20;0.90;;;2.00;98.00;;;;;;5074332;28;20518;-68
2021/01/19 07:21:13;;;;;;;1.20;1.00;;;2.00;98.00;;;;;;5072091;28;20516;-68
2021/01/19 07:24:15;;;;;;;1.20;1.00;;;2.10;98.00;;;;;;5074398;28;20478;-66
2021/01/19 07:26:45;;;;;;;1.10;0.90;;;2.00;98.00;;;;;;5072449;28;20937;-67
2021/01/19 07:29:12;;;;;;;1.20;0.90;;;2.10;98.00;;;;;;5074243;28;20955;-67
2021/01/19 07:31:40;;;;;;;1.20;1.00;;;2.10;98.00;;;;;;5072535;28;20463;-67
2021/01/19 07:34:10;;;;;;;1.20;1.00;;;2.10;98.00;;;;;;5074138;28;20458;-68
2021/01/19 07:36:36;;;;;;;1.20;0.90;;;2.10;98.00;;;;;;5070934;28;20504;-68
2021/01/19 07:39:13;;;;;;;1.10;0.90;;;2.10;98.00;;;;;;5073997;28;20494;-67
2021/01/19 07:41:40;;;;;;;1.20;0.90;;;2.10;98.00;;;;;;5072270;28;20467;-68
2021/01/19 07:44:07;;;;;;;1.20;1.00;;;2.00;98.00;;;;;;5074004;28;20528;-67
2021/01/19 07:46:34;;;;;;;1.20;1.00;;;1.90;98.00;;;;;;5072309;28;20478;-69
2021/01/19 07:49:01;;;;;;;1.20;1.00;;;1.80;98.00;;;;;;5074087;28;20454;-67
2021/01/19 07:51:39;;;;;;;1.30;1.10;;;1.80;98.00;;;;;;5071892;28;20474;-67
2021/01/19 07:54:06;;;;;;;1.30;1.30;;;1.70;98.00;;;;;;5073695;28;20545;-67
2021/01/19 07:56:33;;;;;;;1.40;1.10;;;1.80;98.00;;;;;;5072953;28;20463;-66
2021/01/19 07:59:00;;;;;;;1.20;1.00;;;1.90;98.00;;;;;;5074243;28;20494;-67
2021/01/19 08:01:31;;;;;;;1.20;1.00;;;1.90;98.00;;;;;;5073103;28;20454;-66
2021/01/19 08:04:09;;;;;;;1.10;1.00;;;2.00;98.00;;;;;;5074245;28;20447;-67
2021/01/19 08:06:36;;;;;;;1.20;0.93;;;2.00;98.00;;;;;;5071867;28;21045;-66
2021/01/19 08:09:13;;;;;;;1.10;0.90;;;2.00;98.00;;;;;;5072490;28;20456;-67
2021/01/19 08:11:40;;;;;;;1.10;0.93;;;2.10;98.00;;;;;;5070519;28;20879;-66
2021/01/19 08:14:07;;;;;;;1.20;0.90;;;2.20;98.00;;;;;;5073385;28;20953;-66
2021/01/19 08:16:36;;;;;;;1.70;1.10;;;2.30;98.00;;;;;;5071177;28;21166;-66
2021/01/19 08:19:06;;;;;;;1.30;1.10;;;2.20;98.00;;;;;;5073113;28;20483;-66
2021/01/19 08:21:34;;;;;;;1.10;1.00;;;2.30;98.00;;;;;;5071325;28;20463;-66
2021/01/19 08:24:04;;;;;;;1.10;0.90;;;2.20;98.00;;;;;;5073122;28;20982;-66
2021/01/19 08:26:32;;;;;;;1.17;0.90;;;2.10;98.00;;;;;;5070566;28;20495;-66
2021/01/19 08:29:01;;;;;;;1.20;1.00;;;2.20;98.00;;;;;;5072858;28;20455;-67
2021/01/19 08:31:29;;;;;;;1.10;1.00;;;2.20;98.00;;;;;;5070891;28;20455;-67
2021/01/19 08:34:01;;;;;;;1.10;1.00;;;2.30;98.00;;;;;;5070866;28;20464;-66
2021/01/19 08:36:29;;;;;;;1.10;1.00;;;2.30;98.00;;;;;;5070272;28;20890;-68
2021/01/19 08:38:57;;;;;;;1.10;0.90;;;2.20;98.00;;;;;;5071084;28;20482;-66
2021/01/19 08:41:23;;;;;;;1.20;1.00;;;2.20;98.00;;;;;;5070956;28;20467;-68
2021/01/19 08:43:57;;;;;;;1.20;1.00;;;2.10;98.00;;;;;;5072570;28;20456;-66
2021/01/19 08:46:25;;;;;;;1.20;0.90;;;2.00;98.00;;;;;;5070955;28;20460;-68
2021/01/19 08:48:52;;;;;;;1.17;0.90;;;1.90;98.00;;;;;;5071435;28;20509;-68
2021/01/19 08:51:26;;;;;;;1.20;0.90;;;1.90;98.00;;;;;;5070600;28;20460;-66
2021/01/19 08:53:53;;;;;;;1.17;0.90;;;2.00;98.00;;;;;;5072881;28;20510;-66
2021/01/19 08:56:21;;;;;;;1.20;1.10;;;2.10;98.00;;;;;;5070010;28;20455;-66
2021/01/19 08:58:48;;;;;;;1.67;1.10;;;2.40;98.00;;;;;;5072341;28;20499;-70
2021/01/19 09:01:15;;;;;;;1.23;1.10;;;2.50;98.00;;;;;;5071138;28;20814;-68
2021/01/19 09:03:41;;;;;;;1.50;1.27;;;2.70;98.00;;;;;;5072482;28;20456;-67
2021/01/19 09:06:09;;;;;;;1.20;1.00;;;2.90;98.00;;;;;;5071608;28;20467;-69
2021/01/19 09:08:41;;;;;;;1.33;1.30;;;3.00;98.00;;;;;;5072528;28;20472;-68
2021/01/19 09:11:09;;;;;;;1.40;1.20;;;3.10;98.00;;;;;;5072218;28;20954;-67
2021/01/19 09:13:39;;;;;;;1.30;1.20;;;3.20;98.00;;;;;;5072164;28;20513;-68
2021/01/19 09:16:06;;;;;;;1.20;1.00;;;3.30;98.00;;;;;;5072365;28;20478;-67
2021/01/19 09:18:33;;;;;;;1.10;1.00;;;3.40;98.00;;;;;;5070350;28;20479;-68
2021/01/19 09:21:06;;;;;;;1.13;1.00;;;3.30;98.00;;;;;;5072227;28;20462;-67
2021/01/19 09:23:35;;;;;;;1.10;0.90;;;3.30;98.00;;;;;;5069914;28;20457;-67
2021/01/19 09:26:08;;;;;;;1.20;1.00;;;3.40;98.00;;;;;;5072221;28;20655;-68
2021/01/19 09:28:36;;;;;;;1.17;1.00;;;3.40;98.00;;;;;;5070398;28;21012;-68
2021/01/19 09:31:10;;;;;;;1.10;1.00;;;3.50;98.00;;;;;;5072057;28;20938;-68
2021/01/19 09:33:38;;;;;;;1.20;1.00;;;3.40;97.70;;;;;;5070820;28;20456;-68
2021/01/19 09:36:10;;;;;;;1.50;1.43;;;3.40;97.60;;;;;;5071951;28;21023;-68
2021/01/19 09:38:36;;;;;;;1.30;1.20;;;3.50;97.70;;;;;;5070744;28;20484;-68
2021/01/19 09:41:04;;;;;;;2.60;1.40;;;3.40;98.00;;;;;;5070545;28;20461;-67
2021/01/19 09:43:32;;;;;;;1.20;1.00;;;3.50;98.00;;;;;;5069822;28;20473;-69
2021/01/19 09:46:04;;;;;;;1.20;0.90;;;3.60;98.00;;;;;;5071830;28;20465;-68
2021/01/19 09:48:32;;;;;;;1.20;0.90;;;3.60;98.00;;;;;;5070160;28;20946;-69
2021/01/19 09:51:00;;;;;;;1.20;1.00;;;3.70;98.00;;;;;;5071033;28;20473;-68
2021/01/19 09:53:29;;;;;;;1.20;1.20;;;3.60;97.20;;;;;;5069577;28;20471;-68
2021/01/19 09:55:57;;;;;;;1.20;1.00;;;3.70;97.60;;;;;;5071382;28;20527;-68
2021/01/19 09:58:24;;;;;;;1.10;0.90;;;3.70;97.00;;;;;;5069331;28;20520;-66
2021/01/19 10:00:52;;;;;;;1.40;1.20;;;3.70;97.30;;;;;;5071242;28;20973;-68
2021/01/19 10:03:20;;;;;;;1.20;1.10;;;3.70;97.00;;;;;;5069561;28;20456;-68
2021/01/19 10:05:59;;;;;;;1.20;0.97;;;3.60;96.70;;;;;;5071241;28;20456;-68
2021/01/19 10:08:25;;;;;;;1.20;1.20;;;3.50;97.00;;;;;;5068283;28;20452;-67
2021/01/19 10:10:52;;;;;;;1.20;1.00;;;3.50;97.90;;;;;;5071053;28;20468;-67
2021/01/19 10:13:25;;;;;;;1.20;1.00;;;3.60;98.00;;;;;;5069393;28;20453;-68
2021/01/19 10:16:01;;;;;;;1.20;1.00;;;3.70;97.60;;;;;;5071141;28;20467;-68
2021/01/19 10:18:29;;;;;;;1.10;0.90;;;3.70;96.50;;;;;;5068973;28;20495;-67
2021/01/19 10:20:55;;;;;;;1.60;1.43;;;3.70;97.50;;;;;;5070702;28;20468;-66
2021/01/19 10:23:29;;;;;;;1.10;0.90;;;3.80;97.30;;;;;;5067906;28;20467;-67
2021/01/19 10:26:14;;;;;;;1.10;0.90;;;3.80;95.90;;;;;;5070527;28;20874;-68
2021/01/19 10:28:42;;;;;;;1.10;0.90;;;3.70;97.10;;;;;;5068654;28;20456;-67
2021/01/19 10:31:21;;;;;;;2.17;1.50;;;3.70;96.70;;;;;;5070488;28;20464;-68
2021/01/19 10:33:57;;;;;;;1.17;0.90;;;3.80;96.80;;;;;;5070190;28;20464;-66
2021/01/19 10:36:25;;;;;;;1.63;1.30;;;3.90;96.80;;;;;;5068461;28;20976;-66
2021/01/19 10:38:53;;;;;;;1.20;0.93;;;3.90;97.00;;;;;;5070002;28;20491;-68
2021/01/19 10:41:27;;;;;;;1.20;1.00;;;4.00;96.50;;;;;;5067465;28;20505;-67
2021/01/19 10:43:56;;;;;;;1.20;1.00;;;4.00;95.70;;;;;;5070375;28;20456;-68
2021/01/19 10:46:25;;;;;;;1.30;1.20;;;3.90;95.50;;;;;;5069016;28;20492;-67
2021/01/19 10:49:03;;;;;;;1.10;0.90;;;3.90;96.20;;;;;;5070164;28;20453;-67
2021/01/19 10:51:30;;;;;;;1.20;1.03;;;3.90;96.20;;;;;;5067381;28;20856;-68
2021/01/19 10:54:09;;;;;;;1.40;1.00;;;3.90;97.30;;;;;;5070204;28;20945;-68
2021/01/19 10:56:36;;;;;;;1.20;1.20;;;4.00;96.30;;;;;;5068736;28;20448;-68
2021/01/19 10:59:02;;;;;;;1.77;1.10;;;3.90;96.90;;;;;;5069844;28;20997;-68
2021/01/19 11:01:32;;;;;;;1.37;1.20;;;3.90;97.30;;;;;;5068630;28;20452;-68
2021/01/19 11:04:01;;;;;;;1.20;1.00;;;4.00;98.00;;;;;;5070155;28;20463;-67
2021/01/19 11:06:32;;;;;;;1.20;1.03;;;4.10;96.50;;;;;;5068644;28;20514;-67
2021/01/19 11:08:59;;;;;;;1.67;1.43;;;4.20;96.70;;;;;;5070082;28;20459;-68
2021/01/19 11:11:26;;;;;;;1.10;0.90;;;4.10;97.20;;;;;;5068273;28;20473;-66
2021/01/19 11:13:55;;;;;;;1.20;1.00;;;4.00;97.60;;;;;;5070019;28;20543;-67
2021/01/19 11:16:28;;;;;;;1.20;0.90;;;4.00;98.00;;;;;;5069134;28;20518;-68
2021/01/19 11:19:00;;;;;;;1.20;0.90;;;4.20;97.60;;;;;;5069962;28;20481;-67
2021/01/19 11:21:31;;;;;;;1.20;1.10;;;4.20;96.70;;;;;;5068675;28;20502;-67
2021/01/19 11:23:58;;;;;;;1.20;1.03;;;4.20;97.60;;;;;;5070367;28;20457;-68
2021/01/19 11:26:25;;;;;;;1.20;1.00;;;4.10;96.90;;;;;;5068331;28;20513;-67
2021/01/19 11:28:52;;;;;;;1.40;1.20;;;4.20;97.00;;;;;;5069989;28;20449;-68
2021/01/19 11:31:23;;;;;;;1.20;1.00;;;4.40;98.00;;;;;;5069999;28;20457;-67
2021/01/19 11:33:49;;;;;;;1.30;1.10;;;4.40;95.90;;;;;;5069156;28;20467;-69
2021/01/19 11:36:22;;;;;;;1.20;1.00;;;4.40;96.50;;;;;;5069946;28;20457;-67
2021/01/19 11:38:49;;;;;;;1.30;1.10;;;4.30;97.20;;;;;;5068488;28;20528;-69
2021/01/19 11:41:16;;;;;;;1.20;1.00;;;4.40;97.70;;;;;;5069859;28;20827;-67
2021/01/19 11:43:43;;;;;;;1.20;1.10;;;4.40;98.00;;;;;;5067573;28;20453;-68
2021/01/19 11:46:10;;;;;;;1.20;1.00;;;4.60;98.00;;;;;;5070137;28;20464;-67
2021/01/19 11:48:37;;;;;;;1.20;1.00;;;4.60;98.00;;;;;;5070876;28;20476;-68
2021/01/19 11:51:05;;;;;;;1.20;1.00;;;4.60;97.30;;;;;;5073698;28;20834;-68
2021/01/19 11:53:32;;;;;;;1.20;0.97;;;4.60;97.90;;;;;;5071649;28;20456;-68
2021/01/19 11:56:02;;;;;;;1.20;1.00;;;4.60;97.90;;;;;;5073516;28;20521;-66
2021/01/19 11:58:29;;;;;;;1.20;1.00;;;4.50;97.50;;;;;;5070868;28;21016;-67
2021/01/19 12:00:56;;;;;;;1.20;1.00;;;4.50;98.00;;;;;;5073258;28;20471;-67
2021/01/19 12:03:22;;;;;;;1.20;1.00;;;4.50;98.00;;;;;;5072139;28;20460;-67
2021/01/19 12:05:50;;;;;;;1.20;1.00;;;4.50;97.70;;;;;;5071950;28;20452;-66
2021/01/19 12:08:16;;;;;;;1.20;1.00;;;4.40;97.60;;;;;;5071111;28;20452;-67
2021/01/19 12:10:45;;;;;;;1.20;1.00;;;4.40;97.70;;;;;;5072994;28;20461;-67
2021/01/19 12:13:12;;;;;;;3.67;1.50;;;4.30;98.00;;;;;;5071446;28;20527;-67
2021/01/19 12:15:39;;;;;;;1.40;1.20;;;4.10;98.00;;;;;;5073150;28;20457;-68
2021/01/19 12:18:06;;;;;;;1.20;1.00;;;4.00;98.00;;;;;;5071190;28;20456;-66
2021/01/19 12:20:33;;;;;;;1.20;1.00;;;3.90;98.00;;;;;;5073098;28;21033;-69
2021/01/19 12:22:59;;;;;;;2.07;1.20;;;3.90;98.00;;;;;;5070684;28;20487;-67
2021/01/19 12:25:26;;;;;;;1.20;1.00;;;3.80;98.00;;;;;;5072564;28;20510;-67
2021/01/19 12:28:02;;;;;;;1.20;1.10;;;4.00;98.00;;;;;;5070963;28;20468;-68
2021/01/19 12:30:29;;;;;;;1.93;1.50;;;4.10;98.00;;;;;;5072951;28;20461;-68
2021/01/19 12:32:56;;;;;;;1.23;1.10;;;4.10;98.00;;;;;;5071105;28;20466;-67
2021/01/19 12:35:23;;;;;;;1.30;1.20;;;4.00;98.00;;;;;;5071382;28;20825;-66
2021/01/19 12:37:54;;;;;;;1.20;1.00;;;3.90;98.00;;;;;;5070824;28;20468;-69
2021/01/19 12:40:20;;;;;;;1.20;1.20;;;4.00;98.00;;;;;;5072645;28;20457;-67
2021/01/19 12:42:47;;;;;;;1.40;1.10;;;4.10;98.00;;;;;;5071107;28;21001;-67
2021/01/19 12:45:15;;;;;;;1.63;1.57;;;4.10;98.00;;;;;;5070956;28;20468;-67
2021/01/19 12:47:41;;;;;;;1.20;1.10;;;4.10;98.00;;;;;;5070564;28;20499;-68
2021/01/19 12:50:10;;;;;;;1.20;1.00;;;4.20;98.00;;;;;;5072278;28;20460;-68
2021/01/19 12:52:36;;;;;;;1.63;1.27;;;4.30;98.00;;;;;;5070522;28;20791;-65
2021/01/19 12:55:04;;;;;;;1.20;0.97;;;4.40;98.00;;;;;;5072203;28;20947;-66
2021/01/19 12:57:32;;;;;;;1.20;1.00;;;4.60;98.00;;;;;;5070035;28;20476;-65
2021/01/19 12:59:58;;;;;;;1.30;1.10;;;4.70;97.90;;;;;;5071871;28;20485;-66
2021/01/19 13:02:26;;;;;;;1.20;1.00;;;4.70;97.30;;;;;;5070269;28;20522;-65
2021/01/19 13:04:52;;;;;;;1.30;1.30;;;4.80;98.00;;;;;;5071993;28;20460;-66
2021/01/19 13:07:23;;;;;;;2.47;2.07;;;4.70;97.90;;;;;;5070539;28;20479;-66
2021/01/19 13:09:50;;;;;;;1.20;1.00;;;4.70;97.80;;;;;;5071951;28;20464;-65
2021/01/19 13:12:20;;;;;;;1.20;1.10;;;4.80;98.00;;;;;;5070692;28;20536;-66